Time;durP1;ratioP1;P1;durP2;ratioP2;P2;SDS_P1;SDS_P2;PMS_P1;PMS_P2;Temp;Humidity;BMP_temperature;BMP_pressure;BME280_temperature;BME280_humidity;BME280_pressure;Samples;Min_cycle;Max_cycle;Signal;HPM_P1;HPM_P2
2021/10/24 00:01:08;;;;;;;16.70;4.67;;;;;;;-145.69;100.00;73110.06;5155663;27;20304;-78
2021/10/24 00:03:34;;;;;;;11.03;4.57;;;;;;;-145.69;100.00;73110.06;5155912;27;20199;-77
2021/10/24 00:06:01;;;;;;;10.63;4.77;;;;;;;-145.69;100.00;73116.03;5148728;27;20232;-78
2021/10/24 00:08:29;;;;;;;11.13;4.10;;;;;;;-145.69;100.00;73118.03;5135014;27;20201;-78
2021/10/24 00:10:55;;;;;;;12.57;4.67;;;;;;;-145.69;100.00;73120.00;5141480;27;20199;-78
2021/10/24 00:13:22;;;;;;;13.70;4.97;;;;;;;-145.69;100.00;73110.06;5156121;27;20546;-78
2021/10/24 00:15:48;;;;;;;11.67;4.30;;;;;;;-145.69;100.00;73135.94;5155413;27;20199;-78
2021/10/24 00:18:15;;;;;;;14.37;4.87;;;;;;;-145.69;100.00;73112.06;5155003;27;20625;-78
2021/10/24 00:20:41;;;;;;;14.30;4.70;;;;;;;-145.69;100.00;73133.94;5155561;27;20227;-78
2021/10/24 00:23:07;;;;;;;12.27;4.57;;;;;;;-145.69;100.00;73163.81;5155592;27;20233;-78
2021/10/24 00:25:35;;;;;;;9.37;4.77;;;;;;;-145.69;100.00;73205.63;5155373;27;20204;-77
2021/10/24 00:28:02;;;;;;;7.50;4.03;;;;;;;-145.69;100.00;73211.59;5155221;27;20554;-78
2021/10/24 00:30:29;;;;;;;10.43;4.30;;;;;;;-145.69;100.00;73241.44;5155154;27;20196;-77
2021/10/24 00:32:56;;;;;;;8.37;4.67;;;;;;;-145.69;100.00;73213.56;5155363;27;20200;-78
2021/10/24 00:35:22;;;;;;;13.93;4.87;;;;;;;-145.69;100.00;73221.53;5155520;27;20554;-78
2021/10/24 00:37:48;;;;;;;10.30;4.40;;;;;;;-145.69;100.00;73229.50;5155163;27;20200;-77
2021/10/24 00:40:15;;;;;;;10.67;4.80;;;;;;;-145.69;100.00;73207.59;5155091;27;20336;-77
2021/10/24 00:42:47;;;;;;;9.30;5.00;;;;;;;-145.69;100.00;73173.75;5155023;27;20219;-76
2021/10/24 00:45:14;;;;;;;9.73;4.47;;;;;;;-145.69;100.00;73173.75;5155481;27;20200;-77
2021/10/24 00:47:40;;;;;;;7.43;4.00;;;;;;;-145.69;100.00;73249.41;5155145;27;20208;-77
2021/10/24 00:50:08;;;;;;;9.23;4.37;;;;;;;-145.69;100.00;73301.19;5154983;27;20211;-77
2021/10/24 00:52:34;;;;;;;8.37;4.10;;;;;;;-145.69;100.00;73323.06;5154396;27;20228;-77
2021/10/24 00:55:01;;;;;;;8.90;3.73;;;;;;;-145.69;100.00;73362.88;5154778;27;20554;-78
2021/10/24 00:57:28;;;;;;;11.47;4.40;;;;;;;-145.69;100.00;73374.84;5155327;27;20195;-77
2021/10/24 00:59:56;;;;;;;12.13;4.97;;;;;;;-145.69;100.00;73372.84;5154511;27;20219;-77
2021/10/24 01:02:23;;;;;;;14.80;6.10;;;;;;;-145.69;100.00;73368.88;5154787;27;20580;-77
2021/10/24 01:04:49;;;;;;;12.23;4.63;;;;;;;-145.69;100.00;73360.91;5154914;27;20207;-77
2021/10/24 01:07:17;;;;;;;20.40;5.27;;;;;;;-145.69;100.00;73356.91;5154810;27;20238;-77
2021/10/24 01:09:45;;;;;;;12.90;5.53;;;;;;;-145.69;100.00;73321.09;5154796;27;20275;-77
2021/10/24 01:12:12;;;;;;;9.57;5.13;;;;;;;-145.69;100.00;73348.97;5154518;27;20192;-77
2021/10/24 01:14:38;;;;;;;16.60;5.37;;;;;;;-145.69;100.00;73370.84;5154786;27;20200;-77
2021/10/24 01:17:06;;;;;;;11.83;4.10;;;;;;;-145.69;100.00;73372.84;5154711;27;20229;-76
2021/10/24 01:19:33;;;;;;;11.73;5.83;;;;;;;-145.69;100.00;73350.94;5154622;27;20248;-77
2021/10/24 01:22:00;;;;;;;14.93;6.20;;;;;;;-145.69;100.00;73301.19;5154573;27;20276;-76
2021/10/24 01:24:27;;;;;;;16.07;7.50;;;;;;;-145.69;100.00;73259.38;5154375;27;20204;-77
2021/10/24 01:26:55;;;;;;;19.20;6.87;;;;;;;-145.69;100.00;73263.34;5154941;27;20199;-77
2021/10/24 01:29:23;;;;;;;17.70;7.67;;;;;;;-145.69;100.00;73217.56;5155744;27;20199;-77
2021/10/24 01:31:50;;;;;;;19.90;7.40;;;;;;;-145.69;100.00;73151.88;5158913;27;20260;-77
2021/10/24 01:34:17;;;;;;;19.63;7.63;;;;;;;-145.69;100.00;73114.03;5158640;27;20672;-78
2021/10/24 01:36:43;;;;;;;14.63;5.30;;;;;;;-145.69;100.00;73090.16;5158190;27;20662;-77
2021/10/24 01:39:11;;;;;;;11.03;5.23;;;;;;;-145.69;100.00;73058.31;5158752;27;20203;-77
2021/10/24 01:41:38;;;;;;;10.53;5.37;;;;;;;-145.69;100.00;73072.25;5158385;27;20243;-78
2021/10/24 01:44:05;;;;;;;13.17;6.40;;;;;;;-145.69;100.00;73058.31;5158681;27;20196;-77
2021/10/24 01:46:31;;;;;;;10.30;4.93;;;;;;;-145.69;100.00;73094.13;5158533;27;20200;-78
2021/10/24 01:48:58;;;;;;;9.80;5.07;;;;;;;-145.69;100.00;73114.03;5157906;27;20200;-77
2021/10/24 01:51:25;;;;;;;16.07;5.80;;;;;;;-145.69;100.00;73090.16;5158483;27;20235;-77
2021/10/24 01:53:51;;;;;;;12.70;5.23;;;;;;;-145.69;100.00;73056.31;5158773;27;20203;-76
2021/10/24 01:56:19;;;;;;;14.37;5.13;;;;;;;-145.69;100.00;73046.34;5158151;27;20650;-77
2021/10/24 01:58:46;;;;;;;11.87;5.47;;;;;;;-145.69;100.00;73090.16;5157690;27;20256;-77
2021/10/24 02:01:12;;;;;;;9.73;4.40;;;;;;;-145.69;100.00;73145.91;5157925;27;20232;-77
2021/10/24 02:03:39;;;;;;;10.30;4.67;;;;;;;-145.69;100.00;73181.72;5156580;27;20248;-78
2021/10/24 02:06:06;;;;;;;9.67;4.23;;;;;;;-145.69;100.00;73219.56;5155618;27;20219;-78
2021/10/24 02:08:32;;;;;;;9.33;4.60;;;;;;;-145.69;100.00;73235.47;5158575;27;20204;-78
2021/10/24 02:10:59;;;;;;;10.07;4.83;;;;;;;-145.69;100.00;73269.31;5158132;27;20200;-79
2021/10/24 02:13:27;;;;;;;14.07;5.27;;;;;;;-145.69;100.00;73313.13;5158203;27;20244;-78
2021/10/24 02:15:53;;;;;;;8.77;4.73;;;;;;;-145.69;100.00;73301.19;5156550;27;20192;-77
2021/10/24 02:18:20;;;;;;;10.83;6.00;;;;;;;-145.69;100.00;73325.06;5157899;27;20207;-78
2021/10/24 02:20:47;;;;;;;11.43;5.83;;;;;;;-145.69;100.00;73329.03;5157880;27;20260;-78
2021/10/24 02:23:13;;;;;;;15.90;5.23;;;;;;;-145.69;100.00;73339.00;5157801;27;20196;-78
2021/10/24 02:25:40;;;;;;;12.23;5.13;;;;;;;-145.69;100.00;73344.97;5157966;27;20207;-77
2021/10/24 02:28:06;;;;;;;18.90;5.33;;;;;;;-145.69;100.00;73356.91;5157851;27;20200;-77
2021/10/24 02:30:35;;;;;;;9.57;4.80;;;;;;;-145.69;100.00;73388.78;5157253;27;20203;-77
2021/10/24 02:33:02;;;;;;;11.10;5.10;;;;;;;-145.69;100.00;73400.72;5157535;27;20241;-77
2021/10/24 02:35:28;;;;;;;9.07;4.77;;;;;;;-145.69;100.00;73414.66;5157989;27;20203;-77
2021/10/24 02:37:55;;;;;;;18.97;5.63;;;;;;;-145.69;100.00;73410.66;5157457;27;20675;-77
2021/10/24 02:40:22;;;;;;;14.87;5.40;;;;;;;-145.69;100.00;73400.72;5157021;27;20673;-78
2021/10/24 02:42:48;;;;;;;14.33;5.60;;;;;;;-145.69;100.00;73388.78;5157014;27;20200;-77
2021/10/24 02:45:16;;;;;;;17.03;6.07;;;;;;;-145.69;100.00;73386.78;5157587;27;20280;-77
2021/10/24 02:47:43;;;;;;;14.80;6.20;;;;;;;-145.69;100.00;73380.81;5157119;27;20200;-77
2021/10/24 02:50:10;;;;;;;10.07;5.50;;;;;;;-145.69;100.00;73400.72;5157538;27;20192;-77
2021/10/24 02:52:36;;;;;;;12.37;5.47;;;;;;;-145.69;100.00;73396.72;5157150;27;20257;-77
2021/10/24 02:55:05;;;;;;;10.07;4.57;;;;;;;-145.69;100.00;73400.72;5157257;27;20204;-77
2021/10/24 02:57:31;;;;;;;12.47;5.67;;;;;;;-145.69;100.00;73410.66;5157929;27;20603;-77
2021/10/24 02:59:57;;;;;;;14.10;5.53;;;;;;;-145.69;100.00;73418.63;5157160;27;20199;-77
2021/10/24 03:02:24;;;;;;;11.77;5.70;;;;;;;-145.69;100.00;73444.50;5156883;27;20228;-77
2021/10/24 03:04:52;;;;;;;12.07;4.73;;;;;;;-145.69;100.00;73436.56;5157044;27;20212;-77
2021/10/24 03:07:18;;;;;;;11.57;5.37;;;;;;;-145.69;100.00;73440.53;5156851;27;20200;-77
2021/10/24 03:09:45;;;;;;;12.93;5.40;;;;;;;-145.69;100.00;73448.50;5156894;27;20199;-77
2021/10/24 03:12:11;;;;;;;11.90;5.37;;;;;;;-145.69;100.00;73436.56;5156781;27;20236;-77
2021/10/24 03:14:38;;;;;;;15.37;5.27;;;;;;;-145.69;100.00;73468.41;5156283;27;20245;-77
2021/10/24 03:17:04;;;;;;;15.10;6.17;;;;;;;-145.69;100.00;73460.44;5157000;27;20219;-77
2021/10/24 03:19:31;;;;;;;15.07;7.33;;;;;;;-145.69;100.00;73486.31;5155862;27;20521;-77
2021/10/24 03:21:59;;;;;;;10.97;5.93;;;;;;;-145.69;100.00;73478.34;5156746;27;20235;-77
2021/10/24 03:24:25;;;;;;;15.17;5.60;;;;;;;-145.69;100.00;73480.34;5156600;27;20611;-77
2021/10/24 03:26:52;;;;;;;12.60;6.13;;;;;;;-145.69;100.00;73480.34;5156605;27;20196;-78
2021/10/24 03:29:18;;;;;;;16.13;5.47;;;;;;;-145.69;100.00;73470.41;5156291;27;20200;-77
2021/10/24 03:31:45;;;;;;;17.57;6.47;;;;;;;-145.69;100.00;73422.63;5156439;27;20206;-77
2021/10/24 03:34:11;;;;;;;17.87;6.40;;;;;;;-145.69;100.00;73408.69;5156183;27;20199;-77
2021/10/24 03:36:38;;;;;;;15.30;6.47;;;;;;;-145.69;100.00;73422.63;5156251;27;20253;-78
2021/10/24 03:39:06;;;;;;;16.47;6.70;;;;;;;-145.69;100.00;73416.66;5156472;27;20245;-77
2021/10/24 03:41:32;;;;;;;20.30;6.60;;;;;;;-145.69;100.00;73360.91;5156440;27;20220;-77
2021/10/24 03:43:58;;;;;;;11.83;5.90;;;;;;;-145.69;100.00;73364.88;5156126;27;20208;-77
2021/10/24 03:46:25;;;;;;;17.77;6.97;;;;;;;-145.69;100.00;73358.91;5156043;27;20196;-78
2021/10/24 03:48:51;;;;;;;14.33;6.17;;;;;;;-145.69;100.00;73372.84;5155862;27;20229;-77
2021/10/24 03:51:18;;;;;;;11.23;5.63;;;;;;;-145.69;100.00;73388.78;5155907;27;20264;-78
2021/10/24 03:53:44;;;;;;;13.03;4.67;;;;;;;-145.69;100.00;73396.72;5155291;27;20221;-77
2021/10/24 03:56:12;;;;;;;13.37;5.77;;;;;;;-145.69;100.00;73398.72;5156153;27;20196;-78
2021/10/24 03:58:38;;;;;;;10.80;5.17;;;;;;;-145.69;100.00;73420.63;5155900;27;20204;-78
2021/10/24 04:01:05;;;;;;;15.60;5.50;;;;;;;-145.69;100.00;73424.59;5155529;27;20269;-78
2021/10/24 04:03:32;;;;;;;13.97;5.20;;;;;;;-145.69;100.00;73428.59;5154638;27;20256;-78
2021/10/24 04:05:59;;;;;;;10.47;4.87;;;;;;;-145.69;100.00;73434.56;5153807;27;20192;-78
2021/10/24 04:08:25;;;;;;;12.23;4.87;;;;;;;-145.69;100.00;73448.50;5155870;27;20199;-77
2021/10/24 04:10:52;;;;;;;12.73;5.53;;;;;;;-145.69;100.00;73464.44;5155334;27;20196;-77
2021/10/24 04:13:19;;;;;;;12.90;5.20;;;;;;;-145.69;100.00;73464.44;5155907;27;20531;-77
2021/10/24 04:15:47;;;;;;;9.97;4.80;;;;;;;-145.69;100.00;73480.34;5155857;27;20196;-78
2021/10/24 04:18:13;;;;;;;14.13;5.70;;;;;;;-145.69;100.00;73474.38;5155531;27;20249;-78
2021/10/24 04:20:40;;;;;;;16.03;5.17;;;;;;;-145.69;100.00;73486.31;5155529;27;20206;-78
2021/10/24 04:23:07;;;;;;;15.17;4.90;;;;;;;-145.69;100.00;73494.28;5155484;27;20584;-77
2021/10/24 04:25:33;;;;;;;13.83;5.43;;;;;;;-145.69;100.00;73508.22;5155493;27;20642;-77
2021/10/24 04:28:00;;;;;;;13.37;5.03;;;;;;;-145.69;100.00;73506.22;5155138;27;20199;-77
2021/10/24 04:30:27;;;;;;;17.17;6.00;;;;;;;-145.69;100.00;73510.22;5155481;27;20196;-77
2021/10/24 04:32:54;;;;;;;12.10;5.27;;;;;;;-145.69;100.00;73534.09;5155629;27;20544;-77
2021/10/24 04:35:20;;;;;;;15.93;5.10;;;;;;;-145.69;100.00;73528.13;5155540;27;20200;-77
2021/10/24 04:37:48;;;;;;;9.93;5.20;;;;;;;-145.69;100.00;73538.09;5155224;27;20191;-77
2021/10/24 04:40:15;;;;;;;12.40;4.77;;;;;;;-145.69;100.00;73554.00;5155402;27;20192;-77
2021/10/24 04:42:41;;;;;;;13.23;5.57;;;;;;;-145.69;100.00;73560.00;5155198;27;20224;-77
2021/10/24 04:45:09;;;;;;;15.20;5.83;;;;;;;-145.69;100.00;73561.97;5155545;27;20210;-77
2021/10/24 04:47:37;;;;;;;13.80;5.23;;;;;;;-145.69;100.00;73560.00;5155069;27;20592;-77
2021/10/24 04:50:04;;;;;;;13.73;6.07;;;;;;;-145.69;100.00;73561.97;5155078;27;20208;-77
2021/10/24 04:52:30;;;;;;;15.13;6.33;;;;;;;-145.69;100.00;73560.00;5155340;27;20261;-77
2021/10/24 04:54:57;;;;;;;17.20;6.57;;;;;;;-145.69;100.00;73581.88;5155536;27;20204;-76
2021/10/24 04:57:23;;;;;;;12.57;5.90;;;;;;;-145.69;100.00;73583.88;5154859;27;20208;-76
2021/10/24 04:59:50;;;;;;;16.27;6.20;;;;;;;-145.69;100.00;73583.88;5155083;27;20196;-76
2021/10/24 05:02:16;;;;;;;13.77;5.33;;;;;;;-145.69;100.00;73591.84;5155083;27;20220;-76
2021/10/24 05:04:44;;;;;;;14.03;5.70;;;;;;;-145.69;100.00;73599.81;5154808;27;20199;-77
2021/10/24 05:07:10;;;;;;;13.80;6.40;;;;;;;-145.69;100.00;73603.78;5154952;27;20268;-76
2021/10/24 05:09:37;;;;;;;11.03;6.07;;;;;;;-145.69;100.00;73607.78;5154855;27;20600;-76
2021/10/24 05:12:04;;;;;;;13.93;6.00;;;;;;;-145.69;100.00;73607.78;5154978;27;20200;-77
2021/10/24 05:14:30;;;;;;;14.60;6.17;;;;;;;-145.69;100.00;73595.81;5154863;27;20199;-77
2021/10/24 05:16:56;;;;;;;14.70;6.67;;;;;;;-145.69;100.00;73611.75;5154870;27;20200;-77
2021/10/24 05:19:23;;;;;;;13.50;5.80;;;;;;;-145.69;100.00;73617.72;5154643;27;20200;-76
2021/10/24 05:21:51;;;;;;;15.57;6.67;;;;;;;-145.69;100.00;73603.78;5154684;27;20223;-76
2021/10/24 05:24:17;;;;;;;20.07;6.70;;;;;;;-145.69;100.00;73617.72;5154799;27;20207;-76
2021/10/24 05:26:44;;;;;;;17.97;7.53;;;;;;;-145.69;100.00;73627.69;5154804;27;20203;-77
2021/10/24 05:29:10;;;;;;;18.37;6.77;;;;;;;-145.69;100.00;73637.63;5155171;27;20558;-76
2021/10/24 05:31:37;;;;;;;16.83;6.70;;;;;;;-145.69;100.00;73623.69;5154752;27;20196;-76
2021/10/24 05:34:04;;;;;;;22.17;7.13;;;;;;;-145.69;100.00;73603.78;5154558;27;20673;-77
2021/10/24 05:36:30;;;;;;;19.80;8.20;;;;;;;-145.69;100.00;73595.81;5154727;27;20196;-77
2021/10/24 05:38:59;;;;;;;21.13;7.30;;;;;;;-145.69;100.00;73619.72;5154694;27;20204;-77
2021/10/24 05:41:26;;;;;;;22.60;7.60;;;;;;;-145.69;100.00;73627.69;5154688;27;20652;-77
2021/10/24 05:43:54;;;;;;;19.37;7.33;;;;;;;-145.69;100.00;73619.72;5154540;27;20203;-76
2021/10/24 05:46:21;;;;;;;18.20;7.57;;;;;;;-145.69;100.00;73623.69;5154558;27;20654;-76
2021/10/24 05:48:47;;;;;;;25.23;8.00;;;;;;;-145.69;100.00;73609.75;5154434;27;20558;-76
2021/10/24 05:51:13;;;;;;;22.40;7.77;;;;;;;-145.69;100.00;73627.69;5154845;27;20196;-76
2021/10/24 05:53:40;;;;;;;19.27;7.20;;;;;;;-145.69;100.00;73643.59;5154806;27;20604;-77
2021/10/24 05:56:08;;;;;;;21.63;6.87;;;;;;;-145.69;100.00;73655.56;5154585;27;20210;-76
2021/10/24 05:58:34;;;;;;;16.57;6.70;;;;;;;-145.69;100.00;73667.50;5150936;27;20208;-77
2021/10/24 06:01:01;;;;;;;14.50;6.70;;;;;;;-145.69;100.00;73679.44;5154262;27;20558;-76
2021/10/24 06:03:27;;;;;;;16.67;6.03;;;;;;;-145.69;100.00;73651.56;5154303;27;20701;-76
2021/10/24 06:05:54;;;;;;;17.63;6.67;;;;;;;-145.69;100.00;73661.53;5154408;27;20196;-76
2021/10/24 06:08:23;;;;;;;16.33;6.80;;;;;;;-145.69;100.00;73627.69;5154581;27;20196;-76
2021/10/24 06:10:52;;;;;;;22.37;7.10;;;;;;;-145.69;100.00;73647.59;5154377;27;20225;-76
2021/10/24 06:13:20;;;;;;;26.40;7.73;;;;;;;-145.69;100.00;73627.69;5154437;27;20204;-76
2021/10/24 06:15:47;;;;;;;17.17;7.90;;;;;;;-145.69;100.00;73637.63;5154371;27;20715;-76
2021/10/24 06:18:14;;;;;;;25.37;7.40;;;;;;;-145.69;100.00;73615.72;5157740;27;20204;-76
2021/10/24 06:20:41;;;;;;;23.80;8.93;;;;;;;-145.69;100.00;73607.78;5158107;27;20202;-76
2021/10/24 06:23:07;;;;;;;20.93;7.60;;;;;;;-145.69;100.00;73605.78;5158132;27;20220;-76
2021/10/24 06:25:34;;;;;;;27.80;9.10;;;;;;;-145.69;100.00;73603.78;5157779;27;20203;-77
2021/10/24 06:28:00;;;;;;;38.50;15.57;;;;;;;-145.69;100.00;73611.75;5157537;27;20252;-77
2021/10/24 06:30:28;;;;;;;23.40;7.23;;;;;;;-145.69;100.00;73621.72;5157511;27;20196;-76
2021/10/24 06:32:55;;;;;;;230.87;88.20;;;;;;;-145.69;100.00;73631.66;5157653;27;20253;-76
2021/10/24 06:35:21;;;;;;;36.83;15.67;;;;;;;-145.69;100.00;73651.56;5157852;27;20558;-77
2021/10/24 06:37:49;;;;;;;48.13;17.10;;;;;;;-145.69;100.00;73649.59;5157466;27;20651;-77
2021/10/24 06:40:17;;;;;;;80.82;28.92;;;;;;;-145.69;100.00;73659.53;5156732;27;20439;-76
2021/10/24 06:42:43;;;;;;;53.07;23.20;;;;;;;-145.69;100.00;73651.56;5157300;27;20219;-76
2021/10/24 06:45:11;;;;;;;42.00;17.63;;;;;;;-145.69;100.00;73625.69;5157209;27;20196;-77
2021/10/24 06:47:39;;;;;;;22.63;7.77;;;;;;;-145.69;100.00;73625.69;5157549;27;20207;-77
2021/10/24 06:50:07;;;;;;;20.07;8.50;;;;;;;-145.69;100.00;73607.78;5157374;27;20203;-77
2021/10/24 06:52:34;;;;;;;20.60;7.30;;;;;;;-145.69;100.00;73609.75;5156924;27;20631;-77
2021/10/24 06:55:00;;;;;;;17.43;6.27;;;;;;;-145.69;100.00;73617.72;5157061;27;20192;-77
2021/10/24 06:57:27;;;;;;;31.03;6.83;;;;;;;-145.69;100.00;73603.78;5157646;27;20249;-77
2021/10/24 06:59:53;;;;;;;19.53;7.07;;;;;;;-145.69;100.00;73605.78;5157069;27;20212;-77
2021/10/24 07:02:20;;;;;;;21.07;7.13;;;;;;;-145.69;100.00;73601.81;5157270;27;20235;-77
2021/10/24 07:04:48;;;;;;;25.40;7.20;;;;;;;-145.69;100.00;73571.94;5157104;27;20273;-77
2021/10/24 07:07:20;;;;;;;26.30;7.37;;;;;;;-145.69;100.00;73571.94;5157161;27;20199;-77
2021/10/24 07:09:47;;;;;;;20.17;6.77;;;;;;;-145.69;100.00;73579.91;5156853;27;20206;-77
2021/10/24 07:12:13;;;;;;;21.67;6.60;;;;;;;-145.69;100.00;73593.84;5156648;27;20196;-77
2021/10/24 07:14:39;;;;;;;18.57;6.87;;;;;;;-145.69;100.00;73595.81;5156651;27;20195;-77
2021/10/24 07:17:06;;;;;;;31.97;9.20;;;;;;;-145.69;100.00;73595.81;5156793;27;20547;-76
2021/10/24 07:19:32;;;;;;;24.73;7.43;;;;;;;-145.69;100.00;73583.88;5156716;27;20204;-76
2021/10/24 07:22:00;;;;;;;23.40;7.90;;;;;;;-145.69;100.00;73565.97;5156626;27;20224;-77
2021/10/24 07:24:26;;;;;;;19.73;7.83;;;;;;;-145.69;100.00;73567.94;5156866;27;20543;-77
2021/10/24 07:26:53;;;;;;;29.07;8.37;;;;;;;-145.69;100.00;73556.00;5156181;27;20208;-77
2021/10/24 07:29:19;;;;;;;21.43;7.67;;;;;;;-145.69;100.00;73528.13;5156171;27;20562;-76
2021/10/24 07:31:46;;;;;;;23.13;8.50;;;;;;;-145.69;100.00;73544.06;5156255;27;20248;-77
2021/10/24 07:34:12;;;;;;;29.20;10.30;;;;;;;-145.69;100.00;73528.13;5156173;27;20261;-76
2021/10/24 07:36:38;;;;;;;29.67;10.57;;;;;;;-145.69;100.00;73500.25;5156063;27;20196;-76
2021/10/24 07:39:06;;;;;;;30.63;9.07;;;;;;;-145.69;100.00;73498.28;5156179;27;20200;-77
2021/10/24 07:41:32;;;;;;;29.27;9.13;;;;;;;-145.69;100.00;73484.34;5156288;27;20199;-77
2021/10/24 07:43:59;;;;;;;19.57;8.40;;;;;;;-145.69;100.00;73472.38;5156518;27;20223;-77
2021/10/24 07:46:25;;;;;;;32.17;9.17;;;;;;;-145.69;100.00;73460.44;5156055;27;20212;-77
2021/10/24 07:48:52;;;;;;;22.73;9.93;;;;;;;-145.69;100.00;73420.63;5155260;27;20653;-77
2021/10/24 07:51:18;;;;;;;40.07;13.40;;;;;;;-145.69;100.00;73382.81;5152973;27;20199;-78
2021/10/24 07:53:44;;;;;;;39.83;12.77;;;;;;;-145.69;100.00;73374.84;5154476;27;20200;-77
2021/10/24 07:56:12;;;;;;;32.50;12.53;;;;;;;-145.69;100.00;73368.88;5156017;27;20200;-78
2021/10/24 07:58:39;;;;;;;39.00;12.43;;;;;;;-145.69;100.00;73360.91;5155841;27;20245;-78
2021/10/24 08:01:05;;;;;;;38.33;13.40;;;;;;;-145.69;100.00;73337.00;5155722;27;20650;-78
2021/10/24 08:03:32;;;;;;;36.23;13.07;;;;;;;-145.69;100.00;73317.09;5152104;27;20221;-78
2021/10/24 08:05:58;;;;;;;35.43;12.63;;;;;;;-145.69;100.00;73297.19;5155119;27;20196;-77
2021/10/24 08:08:25;;;;;;;45.80;15.00;;;;;;;-145.69;100.00;73261.34;5155414;27;20243;-78
2021/10/24 08:10:51;;;;;;;38.00;14.27;;;;;;;-145.69;100.00;73225.53;5155416;27;20200;-78
2021/10/24 08:13:19;;;;;;;46.73;16.33;;;;;;;-145.69;100.00;73195.66;5155670;27;20589;-78
2021/10/24 08:15:47;;;;;;;43.53;16.87;;;;;;;-145.69;100.00;73175.75;5155579;27;20600;-78
2021/10/24 08:18:14;;;;;;;46.13;16.40;;;;;;;-145.69;100.00;73151.88;5155335;27;20192;-78
2021/10/24 08:20:41;;;;;;;37.57;15.13;;;;;;;-145.69;100.00;73137.94;5155266;27;20229;-78
2021/10/24 08:23:07;;;;;;;41.20;15.67;;;;;;;-145.69;100.00;73110.06;5155102;27;20315;-78
2021/10/24 08:25:34;;;;;;;59.17;21.27;;;;;;;-145.69;100.00;73066.25;5154795;27;20195;-78
2021/10/24 08:28:02;;;;;;;50.47;22.40;;;;;;;-145.69;100.00;73028.44;5155328;27;20204;-78
2021/10/24 08:30:30;;;;;;;22.87;10.10;;;;;;;-145.69;100.00;73012.53;5155271;27;20200;-79
2021/10/24 08:32:57;;;;;;;13.90;8.00;;;;;;;-145.69;100.00;73004.56;5155161;27;20248;-78
2021/10/24 08:35:24;;;;;;;16.83;7.77;;;;;;;-145.69;100.00;73006.53;5155044;27;20231;-79
2021/10/24 08:37:50;;;;;;;14.03;6.80;;;;;;;-145.69;100.00;72998.59;5155232;27;20200;-78
2021/10/24 08:40:17;;;;;;;13.20;7.00;;;;;;;-145.69;100.00;72992.59;5154725;27;20203;-79
2021/10/24 08:42:46;;;;;;;19.70;7.70;;;;;;;-145.69;100.00;72974.69;5154827;27;20276;-79
2021/10/24 08:45:13;;;;;;;14.83;6.03;;;;;;;-145.69;100.00;72974.69;5155110;27;20268;-79
2021/10/24 08:47:41;;;;;;;11.77;6.30;;;;;;;-145.69;100.00;72964.75;5155016;27;20218;-78
2021/10/24 08:50:10;;;;;;;14.40;6.77;;;;;;;-145.69;100.00;72946.81;5154878;27;20668;-78
2021/10/24 08:52:40;;;;;;;9.93;5.83;;;;;;;-145.69;100.00;72928.91;5154733;27;20239;-78
2021/10/24 08:55:08;;;;;;;13.70;6.03;;;;;;;-145.69;100.00;72911.00;5155030;27;20199;-78
2021/10/24 08:57:35;;;;;;;17.30;5.40;;;;;;;-145.69;100.00;72893.09;5154992;27;20224;-78
2021/10/24 09:00:05;;;;;;;10.53;4.97;;;;;;;-145.69;100.00;72887.09;5154814;27;20227;-78
2021/10/24 09:02:54;;;;;;;16.17;5.07;;;;;;;-145.69;100.00;72869.19;5154517;27;20220;-78
2021/10/24 09:05:29;;;;;;;12.00;5.03;;;;;;;-145.69;100.00;72857.25;5154742;27;20672;-79
2021/10/24 09:07:56;;;;;;;8.87;4.40;;;;;;;-145.69;100.00;72831.38;5154757;27;20217;-78
2021/10/24 09:10:39;;;;;;;7.27;4.00;;;;;;;-145.69;100.00;72817.44;5154516;27;20710;-78
2021/10/24 09:13:08;;;;;;;9.23;4.77;;;;;;;-145.69;100.00;72803.50;5152752;27;20556;-79
2021/10/24 09:15:53;;;;;;;13.13;4.93;;;;;;;-145.69;100.00;72771.66;5154761;27;20245;-79
2021/10/24 09:18:22;;;;;;;11.80;4.60;;;;;;;-145.69;100.00;72759.72;5153851;27;20192;-78
2021/10/24 09:20:49;;;;;;;8.25;4.75;;;;;;;-145.69;100.00;72755.72;5154051;27;20432;-78
2021/10/24 09:23:16;;;;;;;11.03;5.30;;;;;;;-145.69;100.00;72745.78;5154464;27;20310;-79
2021/10/24 09:25:58;;;;;;;7.80;4.70;;;;;;;-145.69;100.00;72737.81;5153460;27;20196;-79
2021/10/24 09:28:27;;;;;;;8.37;4.37;;;;;;;-145.69;100.00;72735.81;5150087;27;20244;-77
2021/10/24 09:31:02;;;;;;;7.07;4.20;;;;;;;-145.69;100.00;72735.81;5154096;27;20654;-76
2021/10/24 09:33:45;;;;;;;7.90;3.90;;;;;;;-145.69;100.00;72733.84;5153058;27;20206;-77
2021/10/24 09:36:13;;;;;;;9.07;4.13;;;;;;;-145.69;100.00;72711.94;5153896;27;20208;-77
2021/10/24 09:38:42;;;;;;;6.87;3.87;;;;;;;-145.69;96.60;72676.09;5154449;27;20203;-77
2021/10/24 09:41:08;;;;;;;9.13;4.30;;;;;;;-145.69;100.00;72662.19;5154217;27;20196;-77
2021/10/24 09:43:36;;;;;;;8.10;4.70;;;;;;;-145.69;97.08;72640.28;5154003;27;20369;-75
2021/10/24 09:46:15;;;;;;;10.73;4.93;;;;;;;-145.69;94.72;72620.38;5154133;27;20192;-75
2021/10/24 09:48:45;;;;;;;6.30;3.80;;;;;;;-145.69;97.51;72620.38;5153978;27;20646;-76
2021/10/24 09:51:14;;;;;;;8.23;4.37;;;;;;;-145.69;92.24;72594.50;5154771;27;20294;-75
2021/10/24 09:53:43;;;;;;;9.40;4.17;;;;;;;-145.69;91.92;72574.59;5156776;27;20204;-75
2021/10/24 09:56:14;;;;;;;8.37;3.47;;;;;;;-145.69;88.87;72542.75;5156123;27;20275;-76
2021/10/24 09:58:42;;;;;;;8.30;4.03;;;;;;;-145.69;89.21;72520.84;5156858;27;20195;-75
2021/10/24 10:01:11;;;;;;;8.90;3.93;;;;;;;-145.69;90.13;72518.88;5158069;27;20191;-75
2021/10/24 10:03:38;;;;;;;7.93;4.23;;;;;;;-145.69;91.55;72524.84;5157213;27;20220;-75
2021/10/24 10:06:06;;;;;;;11.73;4.17;;;;;;;-145.69;89.94;72500.94;5154430;27;20192;-75
2021/10/24 10:08:33;;;;;;;7.03;4.00;;;;;;;-145.69;89.22;72485.03;5157559;27;20203;-76
2021/10/24 10:11:04;;;;;;;5.73;3.80;;;;;;;-145.69;87.21;72457.16;5157246;27;20280;-76
2021/10/24 10:13:33;;;;;;;12.37;3.87;;;;;;;-145.69;92.34;72457.16;5157108;27;20400;-76
2021/10/24 10:16:05;;;;;;;9.87;3.77;;;;;;;-145.69;87.82;72435.28;5157429;27;20268;-76
2021/10/24 10:19:01;;;;;;;9.27;3.47;;;;;;;-145.69;84.88;72423.31;5157874;27;20212;-76
2021/10/24 10:21:32;;;;;;;9.87;3.33;;;;;;;-145.69;87.68;72429.28;5155994;27;20195;-75
2021/10/24 10:23:58;;;;;;;7.00;3.50;;;;;;;-145.69;91.65;72431.28;5157495;27;20240;-76
2021/10/24 10:26:36;;;;;;;6.60;3.27;;;;;;;-145.69;87.45;72399.44;5157574;27;20684;-76
2021/10/24 10:29:04;;;;;;;8.67;3.23;;;;;;;-145.69;81.86;72345.69;5157572;27;20196;-76
2021/10/24 10:31:31;;;;;;;9.13;2.83;;;;;;;-145.69;78.99;72321.81;5157581;27;20286;-76
2021/10/24 10:34:00;;;;;;;10.23;3.73;;;;;;;-145.69;78.01;72305.91;5157492;27;20192;-75
2021/10/24 10:36:59;;;;;;;13.80;5.83;;;;;;;-145.69;74.87;72280.03;5157290;27;20603;-76
2021/10/24 10:39:39;;;;;;;12.00;4.37;;;;;;;-145.69;82.54;72266.09;5157411;27;20288;-76
2021/10/24 10:42:43;;;;;;;7.83;3.47;;;;;;;-145.69;75.35;72258.13;5157315;27;20239;-75
2021/10/24 10:45:40;;;;;;;8.00;4.10;;;;;;;-145.69;71.58;72192.44;5157134;27;20200;-75
2021/10/24 10:48:09;;;;;;;9.47;3.40;;;;;;;-145.69;72.66;72174.53;5155087;27;20196;-75
2021/10/24 10:50:45;;;;;;;12.03;3.57;;;;;;;-145.69;72.07;72164.59;5156622;27;20195;-76
2021/10/24 10:53:19;;;;;;;4.97;2.90;;;;;;;-145.69;73.62;72154.63;5156549;27;20244;-76
2021/10/24 10:56:19;;;;;;;9.93;3.00;;;;;;;-145.69;72.36;72150.66;5156653;27;20207;-75
2021/10/24 10:58:47;;;;;;;7.47;3.40;;;;;;;-145.69;69.26;72142.69;5156931;27;20199;-75
2021/10/24 11:01:20;;;;;;;6.57;2.90;;;;;;;-145.69;69.44;72110.84;5153185;27;20204;-76
2021/10/24 11:03:48;;;;;;;7.37;3.10;;;;;;;-145.69;67.48;72104.88;5156013;27;20701;-76
2021/10/24 11:06:44;;;;;;;7.70;3.07;;;;;;;-145.69;68.05;72094.94;5156309;27;20195;-76
2021/10/24 11:09:14;;;;;;;6.87;3.03;;;;;;;-145.69;71.52;72094.94;5156537;27;20252;-76